Time;durP1;ratioP1;P1;durP2;ratioP2;P2;SDS_P1;SDS_P2;PMS_P1;PMS_P2;Temp;Humidity;BMP_temperature;BMP_pressure;BME280_temperature;BME280_humidity;BME280_pressure;Samples;Min_cycle;Max_cycle;Signal;HPM_P1;HPM_P2
2021/08/02 00:00:06;;;;;;;3.00;1.90;;;13.70;99.90;;;;;;4994825;28;20407;-70
2021/08/02 00:02:49;;;;;;;2.67;2.17;;;13.70;99.90;;;;;;4994998;28;20881;-70
2021/08/02 00:05:17;;;;;;;2.00;1.90;;;13.70;99.90;;;;;;4994621;28;20395;-71
2021/08/02 00:07:45;;;;;;;2.77;2.53;;;13.70;99.90;;;;;;4994674;28;20441;-70
2021/08/02 00:10:15;;;;;;;2.63;2.20;;;13.70;99.90;;;;;;4994621;28;20417;-70
2021/08/02 00:12:45;;;;;;;2.17;2.03;;;13.70;99.90;;;;;;4994566;28;20414;-70
2021/08/02 00:15:12;;;;;;;3.30;2.50;;;13.70;99.90;;;;;;4994644;28;20496;-70
2021/08/02 00:17:40;;;;;;;2.13;1.93;;;13.60;99.90;;;;;;4994438;28;20414;-70
2021/08/02 00:20:08;;;;;;;2.60;1.90;;;13.50;99.90;;;;;;4994521;28;20480;-70
2021/08/02 00:22:34;;;;;;;5.30;1.90;;;13.40;99.90;;;;;;4994255;28;20406;-70
2021/08/02 00:25:00;;;;;;;4.30;1.70;;;13.30;99.90;;;;;;4994427;28;20476;-70
2021/08/02 00:27:26;;;;;;;2.00;1.90;;;13.20;99.90;;;;;;4994604;28;20406;-70
2021/08/02 00:29:52;;;;;;;2.27;2.10;;;13.30;99.90;;;;;;4994325;28;20722;-70
2021/08/02 00:32:18;;;;;;;1.70;1.60;;;13.30;99.90;;;;;;4994279;28;20183;-70
2021/08/02 00:34:44;;;;;;;3.00;2.10;;;13.20;99.90;;;;;;4994293;28;20406;-70
2021/08/02 00:37:17;;;;;;;4.03;2.23;;;13.30;99.90;;;;;;4994306;28;20246;-70
2021/08/02 00:40:14;;;;;;;2.17;1.87;;;13.30;99.90;;;;;;4994516;28;20198;-70
2021/08/02 00:43:10;;;;;;;1.93;1.77;;;13.30;99.90;;;;;;4994143;28;20394;-70
2021/08/02 00:45:36;;;;;;;1.73;1.60;;;13.30;99.90;;;;;;4994233;28;20426;-70
2021/08/02 00:48:03;;;;;;;3.17;1.70;;;13.30;99.90;;;;;;4994267;28;20407;-71
2021/08/02 00:50:33;;;;;;;4.53;2.07;;;13.30;99.90;;;;;;4994347;28;20226;-70
2021/08/02 00:53:00;;;;;;;7.20;2.43;;;13.30;99.90;;;;;;4998164;28;20425;-70
2021/08/02 00:55:32;;;;;;;3.70;1.57;;;13.30;99.90;;;;;;4998132;28;20903;-70
2021/08/02 00:58:01;;;;;;;5.37;1.93;;;13.40;99.90;;;;;;4998144;28;20471;-70
2021/08/02 01:00:27;;;;;;;1.80;1.67;;;13.40;99.90;;;;;;4998283;28;20738;-70
2021/08/02 01:02:54;;;;;;;5.37;1.90;;;13.40;99.90;;;;;;4998137;28;20446;-70
2021/08/02 01:05:20;;;;;;;1.80;1.70;;;13.40;99.90;;;;;;4997953;28;20182;-70
2021/08/02 01:07:49;;;;;;;1.60;1.50;;;13.40;99.90;;;;;;4998165;28;20403;-70
2021/08/02 01:10:17;;;;;;;2.10;1.90;;;13.40;99.90;;;;;;4997883;28;20407;-70
2021/08/02 01:12:47;;;;;;;1.83;1.73;;;13.40;99.90;;;;;;4997810;28;20525;-70
2021/08/02 01:15:14;;;;;;;2.37;1.40;;;13.40;99.90;;;;;;4998131;28;20489;-70
2021/08/02 01:17:41;;;;;;;2.30;1.77;;;13.40;99.90;;;;;;4997737;28;20501;-70
2021/08/02 01:20:10;;;;;;;4.40;2.23;;;13.40;99.90;;;;;;4997579;28;20402;-70
2021/08/02 01:22:38;;;;;;;1.97;1.80;;;13.30;99.90;;;;;;4997574;28;20415;-70
2021/08/02 01:25:32;;;;;;;3.17;2.17;;;13.30;99.90;;;;;;4997487;28;20793;-70
2021/08/02 01:28:13;;;;;;;2.40;2.00;;;13.30;99.90;;;;;;4997474;28;20749;-70
2021/08/02 01:30:42;;;;;;;2.00;1.90;;;13.30;99.90;;;;;;4997751;28;20950;-70
2021/08/02 01:33:08;;;;;;;3.87;1.90;;;13.30;99.90;;;;;;4997462;28;20414;-70
2021/08/02 01:35:36;;;;;;;5.80;1.90;;;13.30;99.90;;;;;;4997296;28;20520;-70
2021/08/02 01:38:03;;;;;;;3.23;1.83;;;13.20;99.90;;;;;;4997374;28;20489;-70
2021/08/02 01:40:30;;;;;;;5.57;2.30;;;13.20;99.90;;;;;;4997237;28;20417;-70
2021/08/02 01:42:57;;;;;;;3.17;2.03;;;13.20;99.90;;;;;;4997250;28;20446;-70
2021/08/02 01:45:26;;;;;;;1.90;1.80;;;13.10;99.90;;;;;;4997516;28;20410;-69
2021/08/02 01:48:05;;;;;;;1.53;1.43;;;13.10;99.90;;;;;;4997119;28;20410;-70
2021/08/02 01:50:54;;;;;;;1.77;1.67;;;13.00;99.90;;;;;;4997064;28;20888;-70
2021/08/02 01:53:36;;;;;;;2.90;2.20;;;13.00;99.90;;;;;;4984340;28;20876;-69
2021/08/02 01:56:17;;;;;;;2.40;2.20;;;12.90;99.90;;;;;;4997099;28;20825;-70
2021/08/02 01:58:56;;;;;;;3.77;1.63;;;12.90;99.90;;;;;;4997049;28;20387;-69
2021/08/02 02:01:24;;;;;;;1.77;1.67;;;12.80;99.90;;;;;;4996580;28;20379;-69
2021/08/02 02:03:51;;;;;;;3.20;2.50;;;12.80;99.90;;;;;;4997323;28;20449;-70
2021/08/02 02:06:20;;;;;;;2.37;2.17;;;12.90;99.90;;;;;;4996809;28;20418;-70
2021/08/02 02:08:58;;;;;;;3.07;1.77;;;12.80;99.90;;;;;;4980041;28;20611;-69
2021/08/02 02:11:25;;;;;;;2.20;1.97;;;12.90;99.90;;;;;;4996726;28;20395;-69
2021/08/02 02:13:55;;;;;;;4.07;1.77;;;12.80;99.90;;;;;;4996797;28;20489;-70
2021/08/02 02:16:21;;;;;;;3.20;1.80;;;12.90;99.90;;;;;;4996515;28;20468;-69
2021/08/02 02:18:51;;;;;;;3.27;1.93;;;12.80;99.90;;;;;;4996617;28;20423;-69
2021/08/02 02:21:19;;;;;;;5.17;1.77;;;12.80;99.90;;;;;;4996568;28;20395;-69
2021/08/02 02:23:46;;;;;;;5.37;2.27;;;12.80;99.90;;;;;;4996481;28;20529;-69
2021/08/02 02:26:12;;;;;;;2.73;2.07;;;12.90;99.90;;;;;;4996518;28;20410;-69
2021/08/02 02:28:39;;;;;;;3.70;2.53;;;12.90;99.90;;;;;;4996375;28;20920;-70
2021/08/02 02:31:06;;;;;;;2.57;1.63;;;12.90;99.90;;;;;;4996288;28;20407;-69
2021/08/02 02:33:33;;;;;;;4.50;2.07;;;12.90;99.90;;;;;;4996378;28;20794;-69
2021/08/02 02:36:01;;;;;;;3.37;2.13;;;12.90;99.90;;;;;;4996273;28;20429;-70
2021/08/02 02:38:27;;;;;;;3.97;1.90;;;13.00;99.90;;;;;;4996333;28;21128;-70
2021/08/02 02:40:54;;;;;;;4.60;1.80;;;13.10;99.90;;;;;;4996308;28;20402;-70
2021/08/02 02:43:20;;;;;;;3.30;1.90;;;13.10;99.90;;;;;;4996140;28;20457;-69
2021/08/02 02:45:49;;;;;;;3.60;2.00;;;13.10;99.90;;;;;;4996159;28;20480;-70
2021/08/02 02:48:16;;;;;;;4.37;1.90;;;13.20;99.90;;;;;;4996005;28;20406;-69
2021/08/02 02:50:45;;;;;;;2.33;2.07;;;13.20;99.90;;;;;;4996117;28;20402;-69
2021/08/02 02:53:12;;;;;;;2.77;2.40;;;13.10;99.90;;;;;;4996031;28;20773;-69
2021/08/02 02:55:40;;;;;;;2.63;2.43;;;13.20;99.90;;;;;;4995984;28;20556;-69
2021/08/02 02:58:06;;;;;;;4.20;2.17;;;13.20;99.90;;;;;;4979036;28;20750;-69
2021/08/02 03:00:33;;;;;;;2.33;1.97;;;13.00;99.90;;;;;;4995866;28;20415;-69
2021/08/02 03:03:00;;;;;;;1.63;1.53;;;13.10;99.90;;;;;;4995914;28;20448;-69
2021/08/02 03:05:27;;;;;;;4.73;2.20;;;13.00;99.90;;;;;;4995700;28;20422;-69
2021/08/02 03:07:57;;;;;;;2.30;2.00;;;13.00;99.90;;;;;;4995786;28;20590;-70
2021/08/02 03:10:24;;;;;;;3.50;2.03;;;13.00;99.90;;;;;;4995695;28;20387;-69
2021/08/02 03:12:51;;;;;;;2.47;2.27;;;13.00;99.90;;;;;;4995571;28;20489;-69
2021/08/02 03:15:17;;;;;;;2.40;1.97;;;13.00;99.90;;;;;;4994723;28;20888;-69
2021/08/02 03:17:44;;;;;;;3.67;2.20;;;13.00;99.90;;;;;;4995538;28;20402;-69
2021/08/02 03:20:10;;;;;;;4.90;2.40;;;12.90;99.90;;;;;;4995441;28;20490;-69
2021/08/02 03:22:58;;;;;;;1.57;1.47;;;13.00;99.90;;;;;;4995279;28;20886;-69
2021/08/02 03:25:39;;;;;;;4.83;2.40;;;12.90;99.90;;;;;;4995387;28;20405;-69
2021/08/02 03:28:26;;;;;;;3.10;2.20;;;12.90;99.90;;;;;;4995422;28;20465;-69
2021/08/02 03:30:57;;;;;;;2.70;2.20;;;12.90;99.90;;;;;;4995241;28;20794;-69
2021/08/02 03:33:30;;;;;;;3.23;2.30;;;12.90;99.90;;;;;;4995288;28;20391;-69
2021/08/02 03:35:58;;;;;;;3.07;2.10;;;12.80;99.90;;;;;;4995050;28;20427;-69
2021/08/02 03:38:26;;;;;;;3.83;2.90;;;12.80;99.90;;;;;;4978534;28;20427;-69
2021/08/02 03:40:54;;;;;;;3.10;2.50;;;12.80;99.90;;;;;;4995438;28;20422;-69
2021/08/02 03:43:20;;;;;;;3.20;2.90;;;12.80;99.90;;;;;;4994999;28;20446;-69
2021/08/02 03:45:46;;;;;;;4.67;2.90;;;12.80;99.90;;;;;;4994938;28;20461;-70
2021/08/02 03:48:12;;;;;;;2.90;2.70;;;12.80;99.90;;;;;;4994963;28;20422;-69
2021/08/02 03:50:38;;;;;;;3.90;2.70;;;12.90;99.90;;;;;;4994793;28;20935;-69
2021/08/02 03:53:04;;;;;;;5.23;2.60;;;12.90;99.90;;;;;;4994892;28;20222;-69
2021/08/02 03:55:31;;;;;;;2.87;2.53;;;12.90;99.90;;;;;;4994752;28;20433;-69
2021/08/02 03:57:57;;;;;;;3.90;2.83;;;13.00;99.90;;;;;;4995393;28;20402;-69
2021/08/02 04:00:24;;;;;;;5.60;2.60;;;13.10;99.90;;;;;;4994813;28;20410;-69
2021/08/02 04:02:50;;;;;;;3.00;2.47;;;13.10;99.90;;;;;;4994601;28;21027;-69
2021/08/02 04:05:19;;;;;;;3.97;2.70;;;13.00;99.90;;;;;;4994413;28;20911;-69
2021/08/02 04:07:46;;;;;;;3.20;2.90;;;13.00;99.90;;;;;;4994686;28;20932;-69
2021/08/02 04:10:12;;;;;;;5.30;3.63;;;13.00;99.90;;;;;;4994863;28;20421;-69
2021/08/02 04:12:38;;;;;;;5.50;2.70;;;13.00;99.90;;;;;;4994513;28;20399;-69
2021/08/02 04:15:06;;;;;;;6.83;3.10;;;13.10;99.90;;;;;;4994495;28;20410;-69
2021/08/02 04:17:32;;;;;;;4.47;3.27;;;13.10;99.90;;;;;;4994460;28;20403;-69
2021/08/02 04:19:57;;;;;;;9.80;3.37;;;13.10;99.90;;;;;;4994432;28;20399;-69
2021/08/02 04:22:23;;;;;;;2.77;2.57;;;13.10;99.90;;;;;;4994439;28;20249;-69
2021/08/02 04:24:49;;;;;;;3.73;2.23;;;13.10;99.90;;;;;;4994318;28;20526;-69
2021/08/02 04:27:14;;;;;;;6.43;2.87;;;13.10;99.90;;;;;;4994392;28;20682;-69
2021/08/02 04:29:40;;;;;;;4.30;3.00;;;13.20;99.90;;;;;;4977312;28;20182;-69
2021/08/02 04:32:06;;;;;;;2.70;2.50;;;13.30;99.90;;;;;;4994364;28;20167;-69
2021/08/02 04:34:32;;;;;;;4.77;3.20;;;13.20;99.90;;;;;;4994572;28;20187;-70
2021/08/02 04:36:57;;;;;;;2.83;2.63;;;13.20;99.90;;;;;;4994294;28;20740;-69
2021/08/02 04:39:23;;;;;;;5.00;2.93;;;13.20;99.90;;;;;;4994364;28;20499;-69
2021/08/02 04:41:49;;;;;;;3.83;3.20;;;13.30;99.90;;;;;;4994344;28;20167;-69
2021/08/02 04:44:14;;;;;;;3.00;2.63;;;13.30;99.90;;;;;;4994164;28;20194;-69
2021/08/02 04:46:40;;;;;;;2.77;2.57;;;13.20;99.90;;;;;;4994243;28;20167;-69
2021/08/02 04:49:05;;;;;;;7.37;2.90;;;13.30;99.90;;;;;;4994151;28;20258;-70
2021/08/02 04:51:31;;;;;;;5.50;2.87;;;13.40;99.90;;;;;;4994287;28;20506;-69
2021/08/02 04:53:57;;;;;;;4.20;3.10;;;13.40;99.90;;;;;;4994124;28;20660;-69
2021/08/02 04:56:22;;;;;;;8.23;3.30;;;13.40;99.90;;;;;;4994127;28;20180;-69
2021/08/02 04:58:48;;;;;;;3.70;2.80;;;13.40;99.90;;;;;;4994189;28;20167;-69
2021/08/02 05:01:14;;;;;;;5.13;2.17;;;13.40;99.90;;;;;;4994406;28;20526;-69
2021/08/02 05:03:39;;;;;;;6.20;2.63;;;13.40;99.90;;;;;;4993850;28;20198;-69
2021/08/02 05:06:05;;;;;;;4.57;3.20;;;13.50;99.90;;;;;;4994020;28;20237;-69
2021/08/02 05:08:31;;;;;;;4.13;3.00;;;13.60;99.90;;;;;;4994047;28;20234;-70
2021/08/02 05:10:57;;;;;;;4.70;3.20;;;13.60;99.90;;;;;;4994530;28;20225;-69
2021/08/02 05:13:22;;;;;;;2.90;2.50;;;13.60;99.90;;;;;;4993943;28;20206;-70
2021/08/02 05:15:48;;;;;;;4.40;3.37;;;13.60;99.90;;;;;;4993935;28;20214;-69
2021/08/02 05:18:14;;;;;;;3.53;3.10;;;13.60;99.90;;;;;;4993785;28;20172;-70
2021/08/02 05:20:41;;;;;;;3.30;2.60;;;13.60;99.90;;;;;;4993969;28;20195;-69
2021/08/02 05:23:07;;;;;;;5.40;3.03;;;13.70;99.90;;;;;;4993783;28;20450;-70
2021/08/02 05:25:33;;;;;;;6.37;2.90;;;13.70;99.90;;;;;;4993856;28;20419;-70
2021/08/02 05:27:59;;;;;;;5.13;3.77;;;13.80;99.90;;;;;;4993909;28;20490;-70
2021/08/02 05:30:25;;;;;;;4.40;2.67;;;13.80;99.90;;;;;;4993887;28;20461;-70
2021/08/02 05:32:50;;;;;;;7.83;3.67;;;13.80;99.90;;;;;;4993646;28;20175;-70
2021/08/02 05:35:16;;;;;;;4.77;3.00;;;13.80;99.90;;;;;;4993752;28;20164;-70
2021/08/02 05:37:42;;;;;;;3.73;3.00;;;13.80;99.90;;;;;;4995682;28;20491;-70
2021/08/02 05:40:08;;;;;;;3.60;3.03;;;13.90;99.90;;;;;;4997160;28;20207;-70
2021/08/02 05:42:35;;;;;;;3.43;2.40;;;14.00;99.90;;;;;;4997259;28;20452;-70
2021/08/02 05:45:02;;;;;;;4.40;2.70;;;13.90;99.90;;;;;;4997134;28;20410;-70
2021/08/02 05:47:28;;;;;;;3.60;3.00;;;14.10;99.90;;;;;;4997114;28;20399;-70
2021/08/02 05:49:54;;;;;;;3.80;2.70;;;14.20;99.90;;;;;;4997092;28;20513;-70
2021/08/02 05:52:19;;;;;;;5.70;2.90;;;14.10;99.90;;;;;;4997146;28;20168;-70
2021/08/02 05:54:45;;;;;;;4.03;2.70;;;14.20;99.90;;;;;;4996968;28;20313;-70
2021/08/02 05:57:12;;;;;;;6.30;3.17;;;14.20;99.90;;;;;;4997286;28;20261;-70
2021/08/02 05:59:37;;;;;;;6.97;2.73;;;14.30;99.90;;;;;;4996978;28;20880;-70
2021/08/02 06:02:03;;;;;;;2.53;2.30;;;14.30;99.90;;;;;;4996929;28;20175;-70
2021/08/02 06:04:29;;;;;;;4.03;2.40;;;14.40;99.90;;;;;;4997157;28;20291;-70
2021/08/02 06:06:54;;;;;;;6.83;3.43;;;14.50;99.90;;;;;;4996872;28;20225;-70
2021/08/02 06:09:22;;;;;;;3.83;2.60;;;14.50;99.90;;;;;;4996858;28;20199;-70
2021/08/02 06:11:48;;;;;;;2.30;2.10;;;14.50;99.90;;;;;;4996833;28;20195;-70
2021/08/02 06:14:14;;;;;;;3.07;2.77;;;14.70;99.90;;;;;;4996588;28;20414;-70
2021/08/02 06:16:39;;;;;;;6.40;3.00;;;14.70;99.90;;;;;;4996876;28;20428;-70
2021/08/02 06:19:05;;;;;;;2.77;2.53;;;14.60;99.90;;;;;;4996736;28;20209;-70
2021/08/02 06:21:31;;;;;;;2.73;2.30;;;14.60;99.90;;;;;;4996723;28;20175;-70
2021/08/02 06:23:56;;;;;;;2.93;2.43;;;14.70;99.90;;;;;;4996493;28;20211;-70
2021/08/02 06:26:22;;;;;;;5.17;2.60;;;14.80;99.90;;;;;;4996568;28;20226;-70
2021/08/02 06:28:50;;;;;;;4.07;2.80;;;14.80;99.90;;;;;;4996596;28;20286;-70
2021/08/02 06:31:16;;;;;;;7.47;2.80;;;14.90;99.90;;;;;;4996518;28;20198;-70
2021/08/02 06:33:42;;;;;;;11.70;3.40;;;14.90;99.90;;;;;;4996332;28;20791;-70
2021/08/02 06:36:07;;;;;;;3.83;2.40;;;15.10;99.90;;;;;;4996332;28;20469;-70
2021/08/02 06:38:34;;;;;;;4.90;2.80;;;15.20;99.90;;;;;;4996589;28;20245;-70
2021/08/02 06:41:01;;;;;;;7.07;2.47;;;15.30;99.90;;;;;;4996330;28;20419;-70
2021/08/02 06:43:27;;;;;;;1.83;1.73;;;15.40;99.90;;;;;;4996099;28;20915;-70
2021/08/02 06:45:52;;;;;;;3.63;2.93;;;15.40;99.90;;;;;;4978898;28;20417;-70
2021/08/02 06:48:18;;;;;;;2.80;2.10;;;15.50;99.90;;;;;;4995239;28;20423;-70
2021/08/02 06:50:44;;;;;;;4.87;2.30;;;15.50;99.90;;;;;;4996051;28;20170;-70
2021/08/02 06:53:09;;;;;;;4.30;2.17;;;15.40;99.90;;;;;;4996016;28;20175;-70
2021/08/02 06:55:35;;;;;;;2.07;1.97;;;15.40;99.90;;;;;;4995926;28;20175;-70
2021/08/02 06:58:01;;;;;;;2.30;2.10;;;15.40;99.90;;;;;;4995876;28;20183;-70
2021/08/02 07:00:26;;;;;;;3.63;2.60;;;15.30;99.90;;;;;;4995954;28;20247;-70
2021/08/02 07:02:52;;;;;;;2.67;2.47;;;15.30;99.90;;;;;;4995733;28;20164;-70
2021/08/02 07:05:20;;;;;;;3.20;2.27;;;15.30;99.90;;;;;;4995746;28;20189;-70
2021/08/02 07:07:45;;;;;;;4.57;2.00;;;15.30;99.90;;;;;;4995778;28;20191;-70
2021/08/02 07:10:12;;;;;;;2.40;2.07;;;15.40;99.90;;;;;;4995742;28;20426;-70
2021/08/02 07:12:38;;;;;;;5.70;1.90;;;15.60;99.90;;;;;;4995636;28;20202;-70
2021/08/02 07:15:03;;;;;;;4.23;2.10;;;15.60;99.90;;;;;;4995640;28;20900;-70
2021/08/02 07:17:29;;;;;;;5.37;2.57;;;15.70;99.90;;;;;;4995772;28;20183;-70
2021/08/02 07:19:55;;;;;;;4.33;2.03;;;15.80;99.90;;;;;;4995638;28;20410;-70
2021/08/02 07:22:21;;;;;;;3.67;2.20;;;15.80;99.90;;;;;;4995441;28;20198;-70
2021/08/02 07:24:46;;;;;;;6.00;2.20;;;15.90;99.90;;;;;;4995664;28;20294;-70
2021/08/02 07:27:12;;;;;;;7.60;2.33;;;16.10;99.90;;;;;;4995425;28;20250;-70
2021/08/02 07:29:38;;;;;;;7.57;1.90;;;16.20;99.90;;;;;;4995381;28;20262;-71
2021/08/02 07:32:04;;;;;;;4.90;1.90;;;16.30;99.90;;;;;;4995313;28;20233;-71
2021/08/02 07:34:29;;;;;;;2.13;1.60;;;16.30;99.90;;;;;;4995439;28;20178;-70
2021/08/02 07:36:55;;;;;;;3.40;1.73;;;16.40;99.90;;;;;;4995121;28;20756;-70
2021/08/02 07:39:21;;;;;;;3.13;2.20;;;16.30;99.90;;;;;;4995218;28;20168;-71
2021/08/02 07:41:46;;;;;;;2.43;1.47;;;16.30;99.90;;;;;;4995358;28;20562;-71
2021/08/02 07:44:12;;;;;;;3.53;1.90;;;16.50;99.90;;;;;;4995223;28;20610;-71
2021/08/02 07:46:37;;;;;;;4.00;1.50;;;16.80;99.90;;;;;;4994938;28;20621;-71
2021/08/02 07:49:03;;;;;;;3.80;2.47;;;17.00;99.90;;;;;;4994930;28;20187;-71
2021/08/02 07:51:30;;;;;;;1.80;1.53;;;17.10;99.90;;;;;;4995008;28;20175;-71
2021/08/02 07:53:58;;;;;;;3.50;1.73;;;17.20;99.90;;;;;;4994847;28;20164;-71
2021/08/02 07:56:24;;;;;;;3.73;1.30;;;17.30;99.90;;;;;;4994775;28;20517;-71
2021/08/02 07:58:50;;;;;;;2.53;1.60;;;17.40;99.90;;;;;;4994732;28;20433;-71
2021/08/02 08:01:15;;;;;;;5.23;1.90;;;17.30;99.90;;;;;;4994630;28;20402;-70
2021/08/02 08:03:43;;;;;;;3.03;1.53;;;17.30;99.90;;;;;;4994618;28;20199;-71
2021/08/02 08:06:08;;;;;;;2.80;2.07;;;17.30;99.90;;;;;;4994731;28;20167;-71
2021/08/02 08:08:34;;;;;;;1.60;1.30;;;17.40;99.90;;;;;;4994724;28;20402;-70
2021/08/02 08:11:00;;;;;;;2.53;1.30;;;17.40;99.90;;;;;;4994679;28;20174;-71
2021/08/02 08:13:25;;;;;;;3.00;1.10;;;17.40;99.90;;;;;;4994616;28;20172;-71
2021/08/02 08:15:51;;;;;;;0.80;0.80;;;17.30;99.90;;;;;;4994533;28;20189;-71
2021/08/02 08:18:16;;;;;;;2.80;1.37;;;17.30;99.90;;;;;;4994539;28;20612;-71
2021/08/02 08:20:42;;;;;;;2.67;1.50;;;17.20;99.90;;;;;;4994530;28;20263;-71
2021/08/02 08:23:08;;;;;;;1.97;1.20;;;17.30;99.90;;;;;;4994388;28;20285;-71
2021/08/02 08:25:33;;;;;;;2.97;1.33;;;17.30;99.90;;;;;;4994412;28;20163;-71
2021/08/02 08:27:59;;;;;;;1.93;1.20;;;17.40;99.90;;;;;;4994429;28;20623;-71
2021/08/02 08:30:25;;;;;;;3.93;1.43;;;17.40;99.90;;;;;;4994451;28;20231;-71
2021/08/02 08:32:51;;;;;;;1.87;1.37;;;17.50;99.90;;;;;;4994311;28;20203;-70
2021/08/02 08:35:16;;;;;;;5.20;1.53;;;17.80;99.90;;;;;;4994551;28;20167;-71
2021/08/02 08:37:43;;;;;;;4.20;1.17;;;18.20;99.90;;;;;;4994336;28;20174;-70
2021/08/02 08:40:10;;;;;;;1.30;1.17;;;18.20;99.90;;;;;;4994367;28;20605;-71
2021/08/02 08:42:37;;;;;;;3.43;1.60;;;18.10;99.90;;;;;;4994319;28;20426;-71
2021/08/02 08:45:03;;;;;;;3.17;1.30;;;18.00;99.90;;;;;;4994080;28;20465;-70
2021/08/02 08:47:32;;;;;;;1.60;1.00;;;17.80;99.90;;;;;;4994320;28;20394;-71
2021/08/02 08:49:57;;;;;;;1.67;1.30;;;17.80;99.90;;;;;;4994051;28;20477;-71
2021/08/02 08:52:23;;;;;;;1.17;0.90;;;17.80;99.90;;;;;;4994259;28;20402;-71
2021/08/02 08:54:49;;;;;;;1.27;1.17;;;18.00;99.90;;;;;;4994206;28;20266;-71
2021/08/02 08:57:14;;;;;;;1.70;1.40;;;18.20;99.90;;;;;;4994210;28;20509;-71
2021/08/02 08:59:52;;;;;;;1.70;1.00;;;18.40;99.90;;;;;;4994229;28;20211;-71
2021/08/02 09:02:26;;;;;;;1.30;1.20;;;18.20;99.90;;;;;;4994127;28;20611;-71
2021/08/02 09:05:02;;;;;;;2.00;1.50;;;18.10;99.90;;;;;;4993987;28;20457;-71
2021/08/02 09:07:32;;;;;;;1.57;1.47;;;18.20;99.90;;;;;;4994306;28;20711;-71
2021/08/02 09:09:59;;;;;;;2.50;1.23;;;18.40;99.90;;;;;;4994076;28;20417;-71
2021/08/02 09:12:25;;;;;;;2.57;1.23;;;18.50;99.90;;;;;;4995649;28;20754;-71
2021/08/02 09:14:59;;;;;;;1.10;1.10;;;18.80;99.90;;;;;;4997996;28;20414;-71
2021/08/02 09:17:30;;;;;;;3.33;1.50;;;18.80;99.90;;;;;;4997808;28;20927;-71
2021/08/02 09:19:56;;;;;;;3.20;1.40;;;18.80;99.90;;;;;;4998032;28;20410;-71
2021/08/02 09:22:30;;;;;;;1.53;1.13;;;18.80;99.90;;;;;;4997671;28;20886;-71
2021/08/02 09:25:14;;;;;;;2.13;1.13;;;18.70;99.90;;;;;;4997329;28;20191;-71
2021/08/02 09:27:41;;;;;;;3.17;1.10;;;18.70;99.90;;;;;;4997575;28;20418;-71
2021/08/02 09:30:25;;;;;;;2.07;1.20;;;18.70;99.90;;;;;;4997530;28;20414;-71
2021/08/02 09:32:54;;;;;;;2.80;1.47;;;18.50;99.90;;;;;;4997813;28;20777;-71
2021/08/02 09:35:39;;;;;;;2.00;1.23;;;18.30;99.90;;;;;;4997513;28;20394;-71
2021/08/02 09:38:15;;;;;;;1.93;1.40;;;18.10;99.90;;;;;;4997454;28;20383;-71
2021/08/02 09:40:42;;;;;;;3.70;1.50;;;18.00;99.90;;;;;;4997383;28;20387;-71
2021/08/02 09:43:12;;;;;;;1.57;1.30;;;18.10;99.90;;;;;;4997514;28;20450;-71
2021/08/02 09:45:45;;;;;;;5.23;1.40;;;18.30;99.90;;;;;;4997259;28;20398;-71
2021/08/02 09:48:17;;;;;;;2.87;1.27;;;18.40;99.90;;;;;;4996747;28;20485;-71
2021/08/02 09:50:44;;;;;;;2.33;1.30;;;18.60;99.90;;;;;;4997312;28;20799;-71
2021/08/02 09:53:18;;;;;;;2.30;1.20;;;18.70;99.90;;;;;;4997100;28;20415;-71
2021/08/02 09:55:46;;;;;;;1.20;1.10;;;18.70;99.90;;;;;;4997225;28;20413;-71
2021/08/02 09:58:18;;;;;;;3.77;1.80;;;18.80;99.90;;;;;;4997099;28;20445;-71
2021/08/02 10:00:44;;;;;;;1.97;1.17;;;18.90;99.90;;;;;;4996876;28;20406;-71
2021/08/02 10:03:10;;;;;;;4.23;1.10;;;19.10;99.90;;;;;;4996870;28;20855;-71
2021/08/02 10:05:39;;;;;;;3.43;1.20;;;19.20;99.90;;;;;;4996924;28;20213;-71
2021/08/02 10:08:05;;;;;;;1.10;1.00;;;19.30;99.90;;;;;;4997016;28;21041;-71
2021/08/02 10:10:31;;;;;;;4.53;1.67;;;19.60;99.90;;;;;;4996813;28;20878;-71
2021/08/02 10:12:57;;;;;;;0.90;0.90;;;20.00;99.90;;;;;;4996799;28;20415;-71
2021/08/02 10:15:29;;;;;;;1.33;1.00;;;20.00;99.90;;;;;;4996709;28;20233;-71
2021/08/02 10:17:57;;;;;;;2.00;1.40;;;19.90;99.90;;;;;;4996763;28;20460;-71
2021/08/02 10:20:27;;;;;;;1.27;1.10;;;19.50;99.90;;;;;;4996637;28;20413;-71
2021/08/02 10:22:54;;;;;;;2.80;1.30;;;19.60;99.90;;;;;;4996237;28;20927;-71
2021/08/02 10:25:41;;;;;;;2.57;1.10;;;19.80;99.90;;;;;;4996563;28;20953;-71
2021/08/02 10:28:11;;;;;;;4.00;1.30;;;20.20;99.90;;;;;;4996484;28;20394;-71
2021/08/02 10:30:38;;;;;;;2.17;1.50;;;20.40;99.90;;;;;;4996730;28;20772;-71
2021/08/02 10:33:04;;;;;;;3.37;1.30;;;20.20;99.90;;;;;;4996424;28;20410;-71
2021/08/02 10:35:36;;;;;;;2.97;0.90;;;20.10;99.90;;;;;;4996453;28;20736;-71
2021/08/02 10:38:08;;;;;;;1.63;1.20;;;20.00;99.90;;;;;;4996380;28;20418;-71
2021/08/02 10:40:45;;;;;;;0.93;0.83;;;20.10;99.90;;;;;;4996333;28;20707;-71
2021/08/02 10:43:11;;;;;;;3.43;1.30;;;20.30;99.90;;;;;;4996144;28;20939;-71
2021/08/02 10:45:42;;;;;;;1.33;1.23;;;20.60;99.90;;;;;;4996136;28;20406;-71
2021/08/02 10:48:08;;;;;;;1.97;1.50;;;20.50;99.90;;;;;;4995861;28;20182;-71
2021/08/02 10:50:38;;;;;;;1.20;1.20;;;20.40;99.90;;;;;;4995995;28;20419;-71
2021/08/02 10:53:15;;;;;;;2.10;1.10;;;20.30;99.90;;;;;;4979716;28;20407;-71
2021/08/02 10:55:53;;;;;;;1.43;1.10;;;20.10;99.90;;;;;;4996057;28;20783;-71
2021/08/02 10:58:30;;;;;;;2.77;1.20;;;19.90;99.90;;;;;;4996248;28;20457;-71
2021/08/02 11:01:01;;;;;;;3.00;1.30;;;19.50;99.90;;;;;;4996089;28;20394;-71
2021/08/02 11:03:31;;;;;;;1.90;1.30;;;19.30;99.90;;;;;;4995817;28;20516;-71
2021/08/02 11:06:04;;;;;;;1.20;1.20;;;19.00;99.90;;;;;;4995951;28;20406;-71
2021/08/02 11:08:34;;;;;;;1.63;1.00;;;18.40;99.90;;;;;;4995779;28;20405;-71
2021/08/02 11:11:03;;;;;;;4.73;1.40;;;18.00;99.90;;;;;;4995796;28;20414;-71
2021/08/02 11:13:30;;;;;;;1.27;1.00;;;17.80;99.90;;;;;;4995608;28;20410;-71
2021/08/02 11:15:55;;;;;;;1.47;1.00;;;17.30;99.90;;;;;;4978403;28;20426;-71
2021/08/02 11:18:28;;;;;;;1.50;1.40;;;17.00;99.90;;;;;;4995622;28;20767;-71
2021/08/02 11:20:55;;;;;;;1.83;1.00;;;16.80;99.90;;;;;;4995514;28;20171;-71
2021/08/02 11:23:32;;;;;;;1.87;1.40;;;16.60;99.90;;;;;;4995337;28;20469;-71
2021/08/02 11:26:12;;;;;;;2.97;1.47;;;16.50;99.90;;;;;;4995673;28;20778;-71
2021/08/02 11:28:38;;;;;;;2.17;1.17;;;16.10;99.90;;;;;;4995595;28;20394;-71
2021/08/02 11:31:04;;;;;;;2.73;1.47;;;16.00;99.90;;;;;;4995404;28;20410;-71
2021/08/02 11:33:32;;;;;;;2.47;1.50;;;16.00;99.90;;;;;;4995262;28;20437;-70
2021/08/02 11:35:58;;;;;;;1.50;1.40;;;16.10;99.90;;;;;;4994628;28;20175;-70
2021/08/02 11:38:37;;;;;;;3.30;1.70;;;16.10;99.90;;;;;;4995198;28;20414;-70
2021/08/02 11:41:03;;;;;;;3.03;1.50;;;16.10;99.90;;;;;;4995205;28;20175;-70
2021/08/02 11:43:28;;;;;;;2.53;1.73;;;16.10;99.90;;;;;;4994854;28;20516;-70
2021/08/02 11:45:54;;;;;;;2.53;2.37;;;16.20;99.90;;;;;;4994674;28;20176;-70
2021/08/02 11:48:22;;;;;;;3.60;2.40;;;16.10;99.90;;;;;;4994733;28;20438;-70
2021/08/02 11:50:48;;;;;;;3.00;2.43;;;16.00;99.90;;;;;;4994940;28;20159;-70
2021/08/02 11:53:14;;;;;;;2.10;1.90;;;15.90;99.90;;;;;;4995133;28;20426;-70
2021/08/02 11:55:50;;;;;;;3.67;1.87;;;15.90;99.90;;;;;;4994759;28;20477;-70
2021/08/02 11:58:15;;;;;;;1.67;1.40;;;15.80;99.90;;;;;;4994912;28;20544;-70
2021/08/02 12:00:41;;;;;;;2.00;1.90;;;15.80;99.90;;;;;;4995124;28;20469;-70
2021/08/02 12:03:11;;;;;;;1.40;1.40;;;15.90;99.90;;;;;;4995003;28;20211;-70
2021/08/02 12:05:39;;;;;;;1.87;1.70;;;15.90;99.90;;;;;;4994753;28;20175;-70
2021/08/02 12:08:11;;;;;;;2.37;1.33;;;16.00;99.90;;;;;;4994631;28;20894;-70
2021/08/02 12:10:36;;;;;;;2.70;1.60;;;16.10;99.90;;;;;;4994452;28;20792;-70
2021/08/02 12:13:08;;;;;;;3.73;1.73;;;16.10;99.90;;;;;;4994678;28;20410;-70
2021/08/02 12:15:35;;;;;;;3.27;1.70;;;16.10;99.90;;;;;;4994634;28;20506;-70
2021/08/02 12:18:01;;;;;;;1.93;1.83;;;16.00;99.90;;;;;;4994550;28;20411;-70
2021/08/02 12:20:36;;;;;;;1.93;1.73;;;16.00;99.90;;;;;;4994817;28;20421;-70
2021/08/02 12:23:08;;;;;;;2.00;1.70;;;16.10;99.90;;;;;;4994433;28;20422;-70
2021/08/02 12:25:39;;;;;;;2.17;2.00;;;16.20;99.90;;;;;;4994620;28;20781;-70
2021/08/02 12:28:06;;;;;;;2.03;1.40;;;16.30;99.90;;;;;;4994476;28;20425;-71
2021/08/02 12:30:33;;;;;;;1.90;1.80;;;16.50;99.90;;;;;;4994393;28;20745;-71
2021/08/02 12:32:59;;;;;;;1.30;1.30;;;16.50;99.90;;;;;;4994368;28;20446;-71
2021/08/02 12:35:25;;;;;;;3.13;1.50;;;16.70;99.90;;;;;;4994362;28;20817;-71
2021/08/02 12:37:51;;;;;;;5.13;1.40;;;16.80;99.90;;;;;;4994284;28;20159;-71
2021/08/02 12:40:18;;;;;;;1.80;1.60;;;16.90;99.90;;;;;;4994273;28;20501;-71
2021/08/02 12:42:46;;;;;;;2.20;1.50;;;17.10;99.90;;;;;;4994073;28;20178;-70
2021/08/02 12:45:14;;;;;;;3.87;1.93;;;17.40;99.90;;;;;;4994250;28;20454;-71
2021/08/02 12:47:40;;;;;;;2.77;1.47;;;17.60;99.90;;;;;;4996374;28;20485;-70
2021/08/02 12:50:07;;;;;;;6.30;1.60;;;17.60;99.90;;;;;;4998233;28;20492;-70
2021/08/02 12:52:33;;;;;;;2.83;1.70;;;17.50;99.90;;;;;;4998273;28;20472;-70